Time,TemperatureF,DewpointF,PressureIn,WindDirection,WindDirectionDegrees,WindSpeedMPH,WindSpeedGustMPH,Humidity,HourlyPrecipIn,Conditions,Clouds,dailyrainin,SoftwareType,DateUTC
2013-05-19 00:00:00,60.0,53.0,30.22,NNW,337,5.0,5.0,78,0.00,,,0.00,TxWx,2013-05-19 04:00:00,
2013-05-19 00:35:00,59.0,53.0,30.22,NNE,22,3.0,3.0,80,0.00,,,0.00,TxWx,2013-05-19 04:35:00,
2013-05-19 00:41:00,59.0,53.0,30.22,NNW,337,5.0,5.0,80,0.00,,,0.00,TxWx,2013-05-19 04:41:00,
2013-05-19 00:48:00,60.0,54.0,30.22,NW,315,4.0,4.0,81,0.00,,,0.00,TxWx,2013-05-19 04:48:00,
2013-05-19 00:53:00,60.0,54.0,30.21,NNE,22,2.0,2.0,81,0.00,,,0.00,TxWx,2013-05-19 04:53:00,
2013-05-19 00:59:00,60.0,54.0,30.21,NNW,337,5.0,6.0,81,0.00,,,0.00,TxWx,2013-05-19 04:59:00,
2013-05-19 01:04:00,60.0,54.0,30.21,NW,315,3.0,4.0,81,0.00,,,0.00,TxWx,2013-05-19 05:04:00,
2013-05-19 01:09:00,60.0,54.0,30.21,NNW,337,4.0,5.0,81,0.00,,,0.00,TxWx,2013-05-19 05:09:00,
2013-05-19 01:16:00,60.0,54.0,30.21,North,0,7.0,8.0,81,0.00,,,0.00,TxWx,2013-05-19 05:16:00,
2013-05-19 01:21:00,60.0,54.0,30.21,NNW,337,5.0,6.0,81,0.00,,,0.00,TxWx,2013-05-19 05:21:00,
2013-05-19 01:26:00,60.0,54.0,30.21,NW,315,4.0,5.0,81,0.00,,,0.00,TxWx,2013-05-19 05:26:00,
2013-05-19 01:31:00,60.0,54.0,30.21,North,0,4.0,5.0,81,0.00,,,0.00,TxWx,2013-05-19 05:31:00,
2013-05-19 01:36:00,60.0,54.0,30.21,NNW,337,4.0,6.0,81,0.00,,,0.00,TxWx,2013-05-19 05:36:00,
2013-05-19 01:41:00,60.0,54.0,30.21,NNW,337,3.0,4.0,81,0.00,,,0.00,TxWx,2013-05-19 05:41:00,
2013-05-19 01:46:00,60.0,54.0,30.21,WNW,292,4.0,6.0,81,0.00,,,0.00,TxWx,2013-05-19 05:46:00,
2013-05-19 01:51:00,60.0,54.0,30.21,NW,315,4.0,5.0,81,0.00,,,0.00,TxWx,2013-05-19 05:51:00,
2013-05-19 01:56:00,60.0,54.0,30.21,NNW,337,3.0,3.0,81,0.00,,,0.00,TxWx,2013-05-19 05:56:00,
2013-05-19 02:02:00,60.0,54.0,30.21,NW,315,3.0,4.0,81,0.00,,,0.00,TxWx,2013-05-19 06:02:00,
2013-05-19 02:07:00,60.0,54.0,30.21,WNW,292,5.0,5.0,81,0.00,,,0.00,TxWx,2013-05-19 06:07:00,
2013-05-19 02:12:00,60.0,54.0,30.21,WSW,247,4.0,4.0,81,0.00,,,0.00,TxWx,2013-05-19 06:12:00,
2013-05-19 02:17:00,60.0,54.0,30.21,NNW,337,3.0,3.0,81,0.00,,,0.00,TxWx,2013-05-19 06:17:00,
2013-05-19 02:22:00,60.0,54.0,30.21,WNW,292,2.0,3.0,81,0.00,,,0.00,TxWx,2013-05-19 06:22:00,
2013-05-19 02:27:00,60.0,54.0,30.21,NW,315,3.0,4.0,81,0.00,,,0.00,TxWx,2013-05-19 06:27:00,
2013-05-19 02:33:00,60.0,54.0,30.20,North,0,3.0,3.0,81,0.00,,,0.00,TxWx,2013-05-19 06:33:00,
2013-05-19 02:38:00,60.0,54.0,30.20,West,270,3.0,5.0,81,0.00,,,0.00,TxWx,2013-05-19 06:38:00,
2013-05-19 02:43:00,60.0,54.0,30.20,NNW,337,3.0,3.0,81,0.00,,,0.00,TxWx,2013-05-19 06:43:00,
2013-05-19 02:49:00,60.0,54.0,30.20,NW,315,2.0,2.0,81,0.00,,,0.00,TxWx,2013-05-19 06:49:00,
2013-05-19 02:54:00,60.0,54.0,30.20,NW,315,4.0,5.0,81,0.00,,,0.00,TxWx,2013-05-19 06:54:00,
2013-05-19 02:59:00,60.0,54.0,30.20,NNE,22,5.0,6.0,81,0.00,,,0.00,TxWx,2013-05-19 06:59:00,
2013-05-19 03:04:00,60.0,54.0,30.20,NW,315,3.0,4.0,81,0.00,,,0.00,TxWx,2013-05-19 07:04:00,
2013-05-19 03:09:00,60.0,54.0,30.20,NW,315,5.0,5.0,81,0.00,,,0.00,TxWx,2013-05-19 07:09:00,
2013-05-19 03:14:00,60.0,54.0,30.20,WNW,292,5.0,6.0,81,0.00,,,0.00,TxWx,2013-05-19 07:14:00,
2013-05-19 03:20:00,60.0,54.0,30.20,NNW,337,3.0,4.0,81,0.00,,,0.00,TxWx,2013-05-19 07:20:00,
2013-05-19 03:25:00,60.0,54.0,30.20,NNE,22,5.0,5.0,81,0.00,,,0.00,TxWx,2013-05-19 07:25:00,
2013-05-19 03:30:00,60.0,54.0,30.20,NNW,337,3.0,3.0,81,0.00,,,0.00,TxWx,2013-05-19 07:30:00,
2013-05-19 03:35:00,60.0,54.0,30.21,NW,315,3.0,3.0,81,0.00,,,0.00,TxWx,2013-05-19 07:35:00,
2013-05-19 03:40:00,60.0,54.0,30.21,WNW,292,2.0,2.0,81,0.00,,,0.00,TxWx,2013-05-19 07:40:00,
2013-05-19 03:46:00,59.0,53.0,30.21,East,90,1.0,1.0,82,0.00,,,0.00,TxWx,2013-05-19 07:46:00,
2013-05-19 03:51:00,59.0,53.0,30.21,ESE,112,1.0,1.0,82,0.00,,,0.00,TxWx,2013-05-19 07:51:00,
2013-05-19 03:56:00,59.0,53.0,30.21,WNW,292,3.0,3.0,82,0.00,,,0.00,TxWx,2013-05-19 07:56:00,
2013-05-19 04:01:00,59.0,53.0,30.21,SE,135,0.0,1.0,82,0.00,,,0.00,TxWx,2013-05-19 08:01:00,
2013-05-19 04:06:00,59.0,53.0,30.21,NW,315,1.0,1.0,82,0.00,,,0.00,TxWx,2013-05-19 08:06:00,
2013-05-19 04:11:00,59.0,53.0,30.21,WSW,247,1.0,1.0,82,0.00,,,0.00,TxWx,2013-05-19 08:11:00,
2013-05-19 04:17:00,59.0,53.0,30.21,SSE,157,1.0,1.0,82,0.00,,,0.00,TxWx,2013-05-19 08:17:00,
2013-05-19 04:22:00,59.0,53.0,30.21,WNW,292,1.0,1.0,82,0.00,,,0.00,TxWx,2013-05-19 08:22:00,
2013-05-19 04:27:00,59.0,53.0,30.21,NNW,337,2.0,2.0,82,0.00,,,0.00,TxWx,2013-05-19 08:27:00,
2013-05-19 04:32:00,59.0,54.0,30.21,NNW,337,3.0,3.0,83,0.00,,,0.00,TxWx,2013-05-19 08:32:00,
2013-05-19 04:37:00,59.0,54.0,30.21,NNW,337,2.0,3.0,83,0.00,,,0.00,TxWx,2013-05-19 08:37:00,
2013-05-19 04:43:00,60.0,55.0,30.21,NNW,337,2.0,3.0,83,0.00,,,0.00,TxWx,2013-05-19 08:43:00,
2013-05-19 04:48:00,60.0,55.0,30.21,NNW,337,2.0,2.0,83,0.00,,,0.00,TxWx,2013-05-19 08:48:00,
2013-05-19 04:53:00,60.0,55.0,30.21,NW,315,2.0,3.0,83,0.00,,,0.00,TxWx,2013-05-19 08:53:00,
2013-05-19 04:58:00,60.0,55.0,30.21,West,270,2.0,3.0,83,0.00,,,0.00,TxWx,2013-05-19 08:58:00,
2013-05-19 05:04:00,60.0,55.0,30.22,NNW,337,1.0,1.0,83,0.00,,,0.00,TxWx,2013-05-19 09:04:00,
2013-05-19 05:09:00,60.0,55.0,30.22,NW,315,1.0,1.0,83,0.00,,,0.00,TxWx,2013-05-19 09:09:00,
2013-05-19 05:14:00,60.0,55.0,30.22,NW,315,2.0,3.0,83,0.00,,,0.00,TxWx,2013-05-19 09:14:00,
2013-05-19 05:19:00,60.0,55.0,30.22,WNW,292,3.0,5.0,83,0.00,,,0.00,TxWx,2013-05-19 09:19:00,
2013-05-19 05:25:00,60.0,55.0,30.22,NW,315,1.0,1.0,83,0.00,,,0.00,TxWx,2013-05-19 09:25:00,
2013-05-19 05:30:00,60.0,55.0,30.22,WNW,292,4.0,7.0,83,0.00,,,0.00,TxWx,2013-05-19 09:30:00,
2013-05-19 05:35:00,60.0,55.0,30.22,North,0,1.0,1.0,83,0.00,,,0.00,TxWx,2013-05-19 09:35:00,
2013-05-19 05:40:00,60.0,55.0,30.22,WNW,292,2.0,3.0,83,0.00,,,0.00,TxWx,2013-05-19 09:40:00,
2013-05-19 05:45:00,60.0,55.0,30.23,NW,315,2.0,3.0,83,0.00,,,0.00,TxWx,2013-05-19 09:45:00,
2013-05-19 05:51:00,60.0,55.0,30.23,NNW,337,2.0,3.0,83,0.00,,,0.00,TxWx,2013-05-19 09:51:00,
2013-05-19 05:56:00,61.0,56.0,30.23,NW,315,3.0,3.0,83,0.00,,,0.00,TxWx,2013-05-19 09:56:00,
2013-05-19 06:01:00,61.0,56.0,30.23,NNW,337,2.0,3.0,83,0.00,,,0.00,TxWx,2013-05-19 10:01:00,
2013-05-19 06:06:00,61.0,55.0,30.23,NNW,337,3.0,3.0,82,0.00,,,0.00,TxWx,2013-05-19 10:06:00,
2013-05-19 06:12:00,61.0,55.0,30.23,WNW,292,2.0,3.0,82,0.00,,,0.00,TxWx,2013-05-19 10:12:00,
2013-05-19 06:17:00,61.0,55.0,30.23,North,0,3.0,3.0,82,0.00,,,0.00,TxWx,2013-05-19 10:17:00,
2013-05-19 06:22:00,61.0,55.0,30.24,SSE,157,0.0,1.0,82,0.00,,,0.00,TxWx,2013-05-19 10:22:00,
2013-05-19 06:27:00,61.0,55.0,30.24,North,0,2.0,3.0,82,0.00,,,0.00,TxWx,2013-05-19 10:27:00,
2013-05-19 06:32:00,61.0,55.0,30.23,North,0,2.0,2.0,82,0.00,,,0.00,TxWx,2013-05-19 10:32:00,
2013-05-19 06:37:00,61.0,55.0,30.24,NNW,337,2.0,3.0,82,0.00,,,0.00,TxWx,2013-05-19 10:37:00,
2013-05-19 06:43:00,61.0,55.0,30.23,North,0,2.0,3.0,82,0.00,,,0.00,TxWx,2013-05-19 10:43:00,
2013-05-19 06:48:00,61.0,55.0,30.24,WNW,292,4.0,5.0,81,0.00,,,0.00,TxWx,2013-05-19 10:48:00,
2013-05-19 06:53:00,61.0,55.0,30.23,NW,315,2.0,3.0,81,0.00,,,0.00,TxWx,2013-05-19 10:53:00,
2013-05-19 06:58:00,61.0,55.0,30.23,NNW,337,2.0,3.0,81,0.00,,,0.00,TxWx,2013-05-19 10:58:00,
2013-05-19 07:04:00,61.0,55.0,30.24,WSW,247,3.0,3.0,81,0.00,,,0.00,TxWx,2013-05-19 11:04:00,
2013-05-19 07:09:00,61.0,55.0,30.24,North,0,3.0,3.0,81,0.00,,,0.00,TxWx,2013-05-19 11:09:00,
2013-05-19 07:14:00,61.0,55.0,30.24,North,0,4.0,4.0,81,0.00,,,0.00,TxWx,2013-05-19 11:14:00,
2013-05-19 07:19:00,61.0,55.0,30.24,WNW,292,1.0,2.0,80,0.00,,,0.00,TxWx,2013-05-19 11:19:00,
2013-05-19 07:25:00,61.0,55.0,30.24,NW,315,3.0,4.0,80,0.00,,,0.00,TxWx,2013-05-19 11:25:00,
2013-05-19 07:30:00,61.0,55.0,30.24,NW,315,3.0,5.0,80,0.00,,,0.00,TxWx,2013-05-19 11:30:00,
2013-05-19 07:35:00,61.0,55.0,30.24,NNW,337,3.0,3.0,80,0.00,,,0.00,TxWx,2013-05-19 11:35:00,
2013-05-19 07:41:00,61.0,55.0,30.24,NNW,337,4.0,5.0,80,0.00,,,0.00,TxWx,2013-05-19 11:41:00,
2013-05-19 07:46:00,61.0,55.0,30.24,West,270,3.0,4.0,80,0.00,,,0.00,TxWx,2013-05-19 11:46:00,
2013-05-19 07:51:00,61.0,55.0,30.24,NNW,337,5.0,5.0,80,0.00,,,0.00,TxWx,2013-05-19 11:51:00,
2013-05-19 07:56:00,61.0,55.0,30.24,NW,315,2.0,3.0,80,0.00,,,0.00,TxWx,2013-05-19 11:56:00,
2013-05-19 08:01:00,61.0,55.0,30.24,North,0,3.0,3.0,80,0.00,,,0.00,TxWx,2013-05-19 12:01:00,
2013-05-19 08:07:00,61.0,55.0,30.24,NNW,337,3.0,4.0,80,0.00,,,0.00,TxWx,2013-05-19 12:07:00,
2013-05-19 08:12:00,61.0,55.0,30.25,NNW,337,3.0,4.0,80,0.00,,,0.00,TxWx,2013-05-19 12:12:00,
2013-05-19 08:17:00,60.0,54.0,30.25,WNW,292,5.0,6.0,80,0.00,,,0.00,TxWx,2013-05-19 12:17:00,
2013-05-19 08:23:00,60.0,54.0,30.25,NW,315,2.0,3.0,81,0.00,,,0.00,TxWx,2013-05-19 12:23:00,
2013-05-19 08:28:00,60.0,54.0,30.25,North,0,3.0,3.0,81,0.00,,,0.00,TxWx,2013-05-19 12:28:00,
2013-05-19 08:33:00,60.0,54.0,30.25,NW,315,3.0,4.0,82,0.00,,,0.00,TxWx,2013-05-19 12:33:00,
2013-05-19 08:38:00,60.0,54.0,30.26,WNW,292,3.0,4.0,82,0.00,,,0.00,TxWx,2013-05-19 12:38:00,
2013-05-19 08:44:00,60.0,55.0,30.26,North,0,5.0,5.0,83,0.00,,,0.00,TxWx,2013-05-19 12:44:00,
2013-05-19 08:49:00,60.0,55.0,30.26,NNW,337,2.0,2.0,84,0.00,,,0.00,TxWx,2013-05-19 12:49:00,
2013-05-19 08:54:00,60.0,55.0,30.26,NNW,337,3.0,4.0,84,0.00,,,0.00,TxWx,2013-05-19 12:54:00,
2013-05-19 08:59:00,60.0,55.0,30.26,NW,315,4.0,4.0,84,0.00,,,0.00,TxWx,2013-05-19 12:59:00,
2013-05-19 09:04:00,60.0,55.0,30.26,NW,315,3.0,3.0,85,0.00,,,0.00,TxWx,2013-05-19 13:04:00,
2013-05-19 09:09:00,60.0,55.0,30.26,NNW,337,5.0,5.0,85,0.00,,,0.00,TxWx,2013-05-19 13:09:00,
2013-05-19 09:15:00,60.0,56.0,30.26,NW,315,3.0,5.0,86,0.00,,,0.00,TxWx,2013-05-19 13:15:00,
2013-05-19 09:20:00,60.0,56.0,30.26,North,0,3.0,5.0,86,0.00,,,0.00,TxWx,2013-05-19 13:20:00,
2013-05-19 09:25:00,60.0,56.0,30.26,NNE,22,3.0,3.0,86,0.00,,,0.00,TxWx,2013-05-19 13:25:00,
2013-05-19 09:30:00,60.0,56.0,30.26,WNW,292,5.0,5.0,87,0.00,,,0.00,TxWx,2013-05-19 13:30:00,
2013-05-19 09:35:00,60.0,56.0,30.26,NW,315,6.0,6.0,87,0.00,,,0.00,TxWx,2013-05-19 13:35:00,
2013-05-19 09:40:00,60.0,56.0,30.26,WNW,292,3.0,5.0,87,0.00,,,0.00,TxWx,2013-05-19 13:40:00,
2013-05-19 09:45:00,60.0,56.0,30.26,NNW,337,4.0,4.0,87,0.00,,,0.00,TxWx,2013-05-19 13:45:00,
2013-05-19 09:50:00,60.0,56.0,30.26,NW,315,4.0,5.0,88,0.00,,,0.00,TxWx,2013-05-19 13:50:00,
2013-05-19 09:55:00,60.0,56.0,30.26,WNW,292,4.0,5.0,88,0.00,,,0.00,TxWx,2013-05-19 13:55:00,
2013-05-19 10:00:00,61.0,57.0,30.26,NW,315,4.0,4.0,88,0.00,,,0.00,TxWx,2013-05-19 14:00:00,
2013-05-19 10:06:00,61.0,57.0,30.26,WNW,292,3.0,3.0,88,0.00,,,0.00,TxWx,2013-05-19 14:06:00,
2013-05-19 10:11:00,61.0,57.0,30.26,NW,315,3.0,3.0,88,0.00,,,0.00,TxWx,2013-05-19 14:11:00,
2013-05-19 10:16:00,61.0,58.0,30.26,WNW,292,2.0,2.0,89,0.00,,,0.00,TxWx,2013-05-19 14:16:00,
2013-05-19 10:22:00,61.0,58.0,30.26,NNW,337,5.0,7.0,89,0.00,,,0.00,TxWx,2013-05-19 14:22:00,
2013-05-19 10:27:00,61.0,58.0,30.26,WNW,292,3.0,5.0,89,0.00,,,0.00,TxWx,2013-05-19 14:27:00,
2013-05-19 10:32:00,62.0,59.0,30.26,NNW,337,7.0,7.0,89,0.00,,,0.00,TxWx,2013-05-19 14:32:00,
2013-05-19 10:37:00,62.0,59.0,30.26,North,0,4.0,5.0,89,0.00,,,0.00,TxWx,2013-05-19 14:37:00,
2013-05-19 10:42:00,62.0,59.0,30.26,NW,315,8.0,8.0,89,0.00,,,0.00,TxWx,2013-05-19 14:42:00,
2013-05-19 10:47:00,62.0,59.0,30.26,NW,315,8.0,11.0,89,0.00,,,0.00,TxWx,2013-05-19 14:47:00,
2013-05-19 10:52:00,62.0,59.0,30.26,North,0,3.0,6.0,89,0.00,,,0.00,TxWx,2013-05-19 14:52:00,
2013-05-19 10:58:00,62.0,59.0,30.26,NW,315,2.0,3.0,90,0.00,,,0.00,TxWx,2013-05-19 14:58:00,
2013-05-19 11:03:00,62.0,59.0,30.26,NW,315,8.0,8.0,90,0.00,,,0.00,TxWx,2013-05-19 15:03:00,
2013-05-19 11:08:00,62.0,59.0,30.26,North,0,2.0,3.0,90,0.00,,,0.00,TxWx,2013-05-19 15:08:00,
2013-05-19 11:13:00,62.0,59.0,30.26,NE,45,3.0,6.0,90,0.00,,,0.00,TxWx,2013-05-19 15:13:00,
2013-05-19 11:18:00,62.0,59.0,30.26,NNW,337,5.0,5.0,90,0.00,,,0.00,TxWx,2013-05-19 15:18:00,
2013-05-19 11:23:00,62.0,59.0,30.26,NNW,337,3.0,3.0,90,0.00,,,0.00,TxWx,2013-05-19 15:23:00,
2013-05-19 11:28:00,62.0,59.0,30.26,NNW,337,3.0,3.0,90,0.00,,,0.00,TxWx,2013-05-19 15:28:00,
2013-05-19 11:33:00,62.0,59.0,30.26,NNW,337,5.0,6.0,90,0.00,,,0.00,TxWx,2013-05-19 15:33:00,
2013-05-19 11:38:00,62.0,59.0,30.26,North,0,2.0,3.0,90,0.00,,,0.00,TxWx,2013-05-19 15:38:00,
2013-05-19 11:43:00,62.0,59.0,30.26,WNW,292,2.0,2.0,90,0.00,,,0.00,TxWx,2013-05-19 15:43:00,
2013-05-19 11:48:00,62.0,59.0,30.26,NW,315,4.0,5.0,90,0.00,,,0.00,TxWx,2013-05-19 15:48:00,
2013-05-19 11:53:00,62.0,59.0,30.26,NNW,337,2.0,3.0,90,0.00,,,0.00,TxWx,2013-05-19 15:53:00,
2013-05-19 11:58:00,62.0,59.0,30.25,North,0,3.0,5.0,89,0.00,,,0.00,TxWx,2013-05-19 15:58:00,
2013-05-19 12:04:00,62.0,59.0,30.25,NW,315,3.0,4.0,89,0.00,,,0.00,TxWx,2013-05-19 16:04:00,
2013-05-19 12:09:00,62.0,59.0,30.25,WNW,292,4.0,5.0,89,0.00,,,0.00,TxWx,2013-05-19 16:09:00,
2013-05-19 12:14:00,62.0,59.0,30.25,NNW,337,5.0,6.0,89,0.00,,,0.00,TxWx,2013-05-19 16:14:00,
2013-05-19 12:19:00,62.0,59.0,30.25,NW,315,5.0,5.0,89,0.00,,,0.00,TxWx,2013-05-19 16:19:00,
2013-05-19 12:25:00,62.0,59.0,30.24,NNW,337,4.0,5.0,89,0.00,,,0.00,TxWx,2013-05-19 16:25:00,
2013-05-19 12:30:00,62.0,59.0,30.24,NW,315,4.0,4.0,89,0.00,,,0.00,TxWx,2013-05-19 16:30:00,
2013-05-19 12:35:00,62.0,59.0,30.24,WNW,292,3.0,3.0,89,0.00,,,0.00,TxWx,2013-05-19 16:35:00,
2013-05-19 12:40:00,62.0,59.0,30.24,NW,315,6.0,6.0,89,0.00,,,0.00,TxWx,2013-05-19 16:40:00,
2013-05-19 12:45:00,62.0,59.0,30.23,NW,315,5.0,5.0,89,0.00,,,0.00,TxWx,2013-05-19 16:45:00,
2013-05-19 12:51:00,62.0,59.0,30.24,North,0,5.0,5.0,89,0.00,,,0.00,TxWx,2013-05-19 16:51:00,
2013-05-19 12:56:00,62.0,59.0,30.23,NW,315,3.0,5.0,89,0.00,,,0.00,TxWx,2013-05-19 16:56:00,
2013-05-19 13:02:00,62.0,59.0,30.23,NW,315,5.0,6.0,89,0.00,,,0.00,TxWx,2013-05-19 17:02:00,
2013-05-19 13:07:00,62.0,59.0,30.23,WNW,292,1.0,3.0,89,0.00,,,0.00,TxWx,2013-05-19 17:07:00,
2013-05-19 13:12:00,62.0,59.0,30.23,NW,315,2.0,2.0,89,0.00,,,0.00,TxWx,2013-05-19 17:12:00,
2013-05-19 13:17:00,62.0,59.0,30.23,NNW,337,3.0,4.0,89,0.00,,,0.00,TxWx,2013-05-19 17:17:00,
2013-05-19 13:22:00,62.0,59.0,30.23,WNW,292,2.0,3.0,89,0.00,,,0.00,TxWx,2013-05-19 17:22:00,
2013-05-19 13:28:00,62.0,59.0,30.22,NNW,337,3.0,4.0,90,0.00,,,0.00,TxWx,2013-05-19 17:28:00,
2013-05-19 13:33:00,62.0,59.0,30.23,NNW,337,3.0,3.0,90,0.00,,,0.00,TxWx,2013-05-19 17:33:00,
2013-05-19 13:38:00,62.0,59.0,30.22,NW,315,2.0,3.0,90,0.00,,,0.00,TxWx,2013-05-19 17:38:00,
2013-05-19 13:43:00,62.0,59.0,30.22,NW,315,5.0,5.0,90,0.00,,,0.00,TxWx,2013-05-19 17:43:00,
2013-05-19 13:48:00,62.0,59.0,30.22,North,0,3.0,3.0,90,0.00,,,0.00,TxWx,2013-05-19 17:48:00,
2013-05-19 13:53:00,62.0,59.0,30.22,NW,315,3.0,3.0,90,0.00,,,0.01,TxWx,2013-05-19 17:53:00,
2013-05-19 13:59:00,62.0,59.0,30.22,NW,315,4.0,4.0,90,0.00,,,0.01,TxWx,2013-05-19 17:59:00,
2013-05-19 14:04:00,62.0,59.0,30.22,NW,315,5.0,5.0,90,0.60,,,0.01,TxWx,2013-05-19 18:04:00,
2013-05-19 14:09:00,62.0,59.0,30.21,NNW,337,3.0,3.0,90,0.60,,,0.01,TxWx,2013-05-19 18:09:00,
2013-05-19 14:14:00,62.0,59.0,30.21,North,0,2.0,3.0,90,0.00,,,0.01,TxWx,2013-05-19 18:14:00,
2013-05-19 14:20:00,62.0,59.0,30.21,North,0,2.0,2.0,90,0.00,,,0.01,TxWx,2013-05-19 18:20:00,
2013-05-19 14:25:00,62.0,59.0,30.21,NW,315,4.0,5.0,90,0.00,,,0.01,TxWx,2013-05-19 18:25:00,
2013-05-19 14:30:00,62.0,59.0,30.21,NW,315,2.0,3.0,90,0.00,,,0.01,TxWx,2013-05-19 18:30:00,
2013-05-19 14:35:00,62.0,59.0,30.21,NNE,22,1.0,3.0,90,0.00,,,0.01,TxWx,2013-05-19 18:35:00,
2013-05-19 14:40:00,62.0,59.0,30.20,NW,315,3.0,3.0,91,0.00,,,0.01,TxWx,2013-05-19 18:40:00,
2013-05-19 14:46:00,62.0,59.0,30.20,NW,315,3.0,6.0,91,0.00,,,0.01,TxWx,2013-05-19 18:46:00,
2013-05-19 14:51:00,62.0,59.0,30.20,NNW,337,3.0,3.0,91,0.00,,,0.01,TxWx,2013-05-19 18:51:00,
2013-05-19 14:56:00,62.0,59.0,30.20,NW,315,5.0,5.0,91,0.00,,,0.01,TxWx,2013-05-19 18:56:00,
2013-05-19 15:01:00,62.0,59.0,30.20,NNW,337,3.0,3.0,91,0.00,,,0.01,TxWx,2013-05-19 19:01:00,
2013-05-19 15:02:00,61.0,58.0,30.10,North,0,4.0,4.0,90,0.00,,,0.00,TxWx,2013-05-19 19:02:00,
2013-05-19 15:03:00,61.0,58.0,30.10,NW,315,5.0,6.0,90,0.00,,,0.00,TxWx,2013-05-19 19:03:00,
2013-05-19 15:04:00,61.0,58.0,30.10,NW,315,3.0,3.0,90,0.00,,,0.00,TxWx,2013-05-19 19:04:00,
2013-05-19 15:05:00,61.0,58.0,30.10,WNW,292,6.0,8.0,90,0.00,,,0.00,TxWx,2013-05-19 19:05:00,
2013-05-19 15:06:00,62.0,59.0,30.19,North,0,3.0,3.0,91,0.00,,,0.01,TxWx,2013-05-19 19:06:00,
2013-05-19 15:07:00,61.0,58.0,30.10,NW,315,3.0,3.0,90,0.00,,,0.00,TxWx,2013-05-19 19:07:00,
2013-05-19 15:08:00,61.0,58.0,30.10,NNW,337,3.0,3.0,90,0.00,,,0.00,TxWx,2013-05-19 19:08:00,
2013-05-19 15:09:00,61.0,58.0,30.10,North,0,3.0,4.0,90,0.00,,,0.00,TxWx,2013-05-19 19:09:00,
2013-05-19 15:10:00,61.0,58.0,30.10,WNW,292,4.0,6.0,90,0.00,,,0.00,TxWx,2013-05-19 19:10:00,
2013-05-19 15:11:00,62.0,59.0,30.19,NNW,337,2.0,3.0,91,0.00,,,0.01,TxWx,2013-05-19 19:11:00,
2013-05-19 15:12:00,61.0,58.0,30.10,NNW,337,5.0,6.0,90,0.00,,,0.00,TxWx,2013-05-19 19:12:00,
2013-05-19 15:13:00,61.0,58.0,30.10,North,0,5.0,6.0,90,0.00,,,0.00,TxWx,2013-05-19 19:13:00,
2013-05-19 15:14:00,61.0,58.0,30.10,NW,315,4.0,5.0,90,0.00,,,0.00,TxWx,2013-05-19 19:14:00,
2013-05-19 15:15:00,61.0,58.0,30.10,NNW,337,5.0,6.0,90,0.00,,,0.00,TxWx,2013-05-19 19:15:00,
2013-05-19 15:16:00,61.0,58.0,30.10,WNW,292,7.0,7.0,90,0.00,,,0.00,TxWx,2013-05-19 19:16:00,
2013-05-19 15:17:00,62.0,59.0,30.19,West,270,3.0,3.0,91,0.00,,,0.02,TxWx,2013-05-19 19:17:00,
2013-05-19 15:18:00,61.0,58.0,30.10,NW,315,2.0,3.0,90,0.00,,,0.00,TxWx,2013-05-19 19:18:00,
2013-05-19 15:19:00,61.0,58.0,30.10,NNW,337,3.0,5.0,90,0.00,,,0.00,TxWx,2013-05-19 19:19:00,
2013-05-19 15:20:00,61.0,58.0,30.10,North,0,4.0,4.0,90,0.00,,,0.00,TxWx,2013-05-19 19:20:00,
2013-05-19 15:21:00,61.0,58.0,30.10,NW,315,2.0,3.0,90,0.00,,,0.00,TxWx,2013-05-19 19:21:00,
2013-05-19 15:22:00,62.0,59.0,30.19,NW,315,3.0,3.0,91,0.60,,,0.02,TxWx,2013-05-19 19:22:00,
2013-05-19 15:23:00,61.0,58.0,30.10,NW,315,5.0,6.0,90,0.00,,,0.00,TxWx,2013-05-19 19:23:00,
2013-05-19 15:24:00,61.0,58.0,30.11,East,90,2.0,3.0,90,0.00,,,0.00,TxWx,2013-05-19 19:24:00,
2013-05-19 15:25:00,61.0,58.0,30.11,NW,315,3.0,4.0,90,0.00,,,0.00,TxWx,2013-05-19 19:25:00,
2013-05-19 15:26:00,61.0,58.0,30.11,NNW,337,3.0,3.0,90,0.00,,,0.00,TxWx,2013-05-19 19:26:00,
2013-05-19 15:27:00,62.0,59.0,30.19,WNW,292,3.0,4.0,91,0.60,,,0.02,TxWx,2013-05-19 19:27:00,
2013-05-19 15:28:00,61.0,58.0,30.10,NW,315,3.0,5.0,90,0.00,,,0.00,TxWx,2013-05-19 19:28:00,
2013-05-19 15:29:00,61.0,58.0,30.11,North,0,3.0,5.0,90,0.00,,,0.00,TxWx,2013-05-19 19:29:00,
2013-05-19 15:30:00,61.0,58.0,30.11,NW,315,3.0,4.0,90,0.00,,,0.00,TxWx,2013-05-19 19:30:00,
2013-05-19 15:31:00,61.0,58.0,30.11,WNW,292,2.0,3.0,90,0.00,,,0.00,TxWx,2013-05-19 19:31:00,
2013-05-19 15:32:00,62.0,59.0,30.19,WNW,292,3.0,3.0,91,0.00,,,0.02,TxWx,2013-05-19 19:32:00,
2013-05-19 15:33:00,61.0,58.0,30.10,NW,315,4.0,6.0,90,0.00,,,0.00,TxWx,2013-05-19 19:33:00,
2013-05-19 15:34:00,61.0,58.0,30.10,NNW,337,6.0,7.0,90,0.00,,,0.00,TxWx,2013-05-19 19:34:00,
2013-05-19 15:35:00,61.0,58.0,30.11,NW,315,2.0,3.0,90,0.00,,,0.00,TxWx,2013-05-19 19:35:00,
2013-05-19 15:36:00,61.0,58.0,30.11,NNW,337,5.0,5.0,90,0.00,,,0.00,TxWx,2013-05-19 19:36:00,
2013-05-19 15:37:00,62.0,59.0,30.19,NNE,22,3.0,5.0,91,0.00,,,0.02,TxWx,2013-05-19 19:37:00,
2013-05-19 15:38:00,61.0,58.0,30.10,WNW,292,3.0,5.0,90,0.00,,,0.00,TxWx,2013-05-19 19:38:00,
2013-05-19 15:39:00,61.0,58.0,30.10,NW,315,3.0,5.0,90,0.00,,,0.00,TxWx,2013-05-19 19:39:00,
2013-05-19 15:40:00,61.0,58.0,30.10,NNW,337,3.0,3.0,90,0.00,,,0.00,TxWx,2013-05-19 19:40:00,
2013-05-19 15:42:00,62.0,59.0,30.19,NW,315,3.0,5.0,91,0.00,,,0.02,TxWx,2013-05-19 19:42:00,
2013-05-19 15:43:00,61.0,58.0,30.10,North,0,2.0,3.0,90,0.00,,,0.00,TxWx,2013-05-19 19:43:00,
2013-05-19 15:44:00,61.0,58.0,30.10,West,270,2.0,3.0,90,0.00,,,0.00,TxWx,2013-05-19 19:44:00,
2013-05-19 15:45:00,61.0,58.0,30.10,NNW,337,3.0,4.0,90,0.00,,,0.00,TxWx,2013-05-19 19:45:00,
2013-05-19 15:46:00,61.0,58.0,30.10,NW,315,3.0,3.0,90,0.00,,,0.00,TxWx,2013-05-19 19:46:00,
2013-05-19 15:47:00,61.0,58.0,30.10,WNW,292,2.0,3.0,90,0.00,,,0.00,TxWx,2013-05-19 19:47:00,
2013-05-19 15:48:00,62.0,59.0,30.19,WNW,292,2.0,2.0,91,0.00,,,0.02,TxWx,2013-05-19 19:48:00,
2013-05-19 15:49:00,61.0,58.0,30.10,WNW,292,3.0,3.0,90,0.00,,,0.00,TxWx,2013-05-19 19:49:00,
2013-05-19 15:50:00,61.0,58.0,30.10,NW,315,3.0,4.0,90,0.00,,,0.00,TxWx,2013-05-19 19:50:00,
2013-05-19 15:52:00,61.0,58.0,30.10,NNW,337,3.0,4.0,90,0.00,,,0.00,TxWx,2013-05-19 19:52:00,
2013-05-19 15:53:00,62.0,59.0,30.19,WSW,247,3.0,3.0,91,0.00,,,0.02,TxWx,2013-05-19 19:53:00,
2013-05-19 15:55:00,61.0,58.0,30.10,NNE,22,1.0,3.0,90,0.00,,,0.00,TxWx,2013-05-19 19:55:00,
2013-05-19 15:58:00,62.0,59.0,30.19,NNW,337,3.0,3.0,91,0.00,,,0.02,TxWx,2013-05-19 19:58:00,
2013-05-19 15:59:00,61.0,58.0,30.10,WNW,292,3.0,3.0,90,0.00,,,0.00,TxWx,2013-05-19 19:59:00,
2013-05-19 16:04:00,62.0,59.0,30.19,NNW,337,2.0,2.0,91,0.00,,,0.02,TxWx,2013-05-19 20:04:00,
2013-05-19 16:06:00,61.0,58.0,30.10,NW,315,3.0,3.0,90,0.00,,,0.00,TxWx,2013-05-19 20:06:00,
2013-05-19 16:07:00,61.0,58.0,30.10,NW,315,3.0,4.0,90,0.00,,,0.00,TxWx,2013-05-19 20:07:00,
2013-05-19 16:09:00,62.0,59.0,30.19,WNW,292,4.0,6.0,91,0.00,,,0.02,TxWx,2013-05-19 20:09:00,
2013-05-19 16:14:00,62.0,59.0,30.19,NW,315,2.0,2.0,91,0.00,,,0.02,TxWx,2013-05-19 20:14:00,
2013-05-19 16:19:00,62.0,59.0,30.19,NW,315,3.0,3.0,91,0.00,,,0.02,TxWx,2013-05-19 20:19:00,
2013-05-19 16:25:00,62.0,59.0,30.19,NW,315,3.0,3.0,92,0.00,,,0.02,TxWx,2013-05-19 20:25:00,
2013-05-19 16:30:00,62.0,59.0,30.19,NNW,337,6.0,6.0,92,0.00,,,0.02,TxWx,2013-05-19 20:30:00,
2013-05-19 16:35:00,62.0,59.0,30.19,NW,315,3.0,3.0,92,0.00,,,0.02,TxWx,2013-05-19 20:35:00,
2013-05-19 16:40:00,62.0,59.0,30.19,WNW,292,1.0,3.0,92,0.00,,,0.02,TxWx,2013-05-19 20:40:00,
2013-05-19 16:46:00,62.0,59.0,30.19,NNW,337,3.0,3.0,92,0.00,,,0.02,TxWx,2013-05-19 20:46:00,
2013-05-19 16:51:00,62.0,59.0,30.18,NNW,337,1.0,1.0,92,0.00,,,0.02,TxWx,2013-05-19 20:51:00,
2013-05-19 16:56:00,62.0,59.0,30.18,NW,315,2.0,2.0,92,0.00,,,0.02,TxWx,2013-05-19 20:56:00,
2013-05-19 17:02:00,62.0,59.0,30.18,NW,315,2.0,3.0,92,0.00,,,0.02,TxWx,2013-05-19 21:02:00,
2013-05-19 17:07:00,62.0,59.0,30.18,West,270,3.0,3.0,92,0.00,,,0.02,TxWx,2013-05-19 21:07:00,
2013-05-19 17:12:00,62.0,59.0,30.18,WNW,292,1.0,1.0,92,0.00,,,0.02,TxWx,2013-05-19 21:12:00,
2013-05-19 17:17:00,62.0,59.0,30.18,NNW,337,3.0,3.0,92,0.00,,,0.02,TxWx,2013-05-19 21:17:00,
2013-05-19 17:23:00,62.0,59.0,30.18,NW,315,1.0,2.0,92,0.00,,,0.02,TxWx,2013-05-19 21:23:00,
2013-05-19 17:28:00,62.0,59.0,30.18,NNW,337,3.0,3.0,92,0.00,,,0.02,TxWx,2013-05-19 21:28:00,
2013-05-19 17:33:00,61.0,58.0,30.18,NW,315,2.0,3.0,92,0.00,,,0.02,TxWx,2013-05-19 21:33:00,
2013-05-19 17:38:00,61.0,58.0,30.18,NW,315,3.0,3.0,92,0.00,,,0.02,TxWx,2013-05-19 21:38:00,
2013-05-19 17:44:00,61.0,58.0,30.17,NW,315,3.0,4.0,92,0.00,,,0.02,TxWx,2013-05-19 21:44:00,
2013-05-19 17:49:00,61.0,59.0,30.17,WNW,292,3.0,3.0,92,0.00,,,0.02,TxWx,2013-05-19 21:49:00,
2013-05-19 17:54:00,61.0,59.0,30.17,NW,315,3.0,3.0,92,0.00,,,0.02,TxWx,2013-05-19 21:54:00,
2013-05-19 18:00:00,61.0,59.0,30.17,NNW,337,4.0,4.0,92,0.00,,,0.02,TxWx,2013-05-19 22:00:00,
2013-05-19 18:05:00,61.0,59.0,30.17,NW,315,1.0,2.0,92,0.00,,,0.02,TxWx,2013-05-19 22:05:00,
2013-05-19 18:10:00,61.0,59.0,30.17,North,0,3.0,3.0,92,0.00,,,0.02,TxWx,2013-05-19 22:10:00,
2013-05-19 18:15:00,61.0,59.0,30.17,NW,315,3.0,3.0,92,0.00,,,0.02,TxWx,2013-05-19 22:15:00,
2013-05-19 18:20:00,61.0,59.0,30.17,NW,315,3.0,3.0,92,0.00,,,0.02,TxWx,2013-05-19 22:20:00,
2013-05-19 18:26:00,61.0,59.0,30.16,WNW,292,4.0,5.0,92,0.00,,,0.02,TxWx,2013-05-19 22:26:00,
2013-05-19 18:31:00,61.0,59.0,30.15,NW,315,4.0,4.0,92,0.00,,,0.02,TxWx,2013-05-19 22:31:00,
2013-05-19 18:36:00,61.0,59.0,30.15,WNW,292,4.0,5.0,92,0.00,,,0.02,TxWx,2013-05-19 22:36:00,
2013-05-19 18:41:00,61.0,59.0,30.15,NNW,337,3.0,4.0,92,0.00,,,0.02,TxWx,2013-05-19 22:41:00,
2013-05-19 18:47:00,61.0,59.0,30.16,NNW,337,3.0,5.0,92,0.00,,,0.02,TxWx,2013-05-19 22:47:00,
2013-05-19 18:52:00,62.0,60.0,30.15,NNW,337,3.0,4.0,92,0.00,,,0.02,TxWx,2013-05-19 22:52:00,
2013-05-19 18:57:00,62.0,60.0,30.15,North,0,5.0,5.0,92,0.00,,,0.02,TxWx,2013-05-19 22:57:00,
2013-05-19 19:02:00,62.0,60.0,30.15,West,270,6.0,6.0,92,0.00,,,0.02,TxWx,2013-05-19 23:02:00,
2013-05-19 19:07:00,62.0,60.0,30.15,WNW,292,5.0,6.0,92,0.00,,,0.02,TxWx,2013-05-19 23:07:00,
2013-05-19 19:12:00,62.0,60.0,30.16,NW,315,5.0,6.0,92,0.00,,,0.02,TxWx,2013-05-19 23:12:00,
2013-05-19 19:18:00,62.0,60.0,30.16,NW,315,7.0,7.0,92,0.00,,,0.02,TxWx,2013-05-19 23:18:00,
2013-05-19 19:23:00,62.0,60.0,30.16,NW,315,3.0,3.0,92,0.00,,,0.02,TxWx,2013-05-19 23:23:00,
2013-05-19 19:29:00,62.0,60.0,30.16,NW,315,2.0,3.0,92,0.00,,,0.02,TxWx,2013-05-19 23:29:00,
2013-05-19 19:34:00,62.0,60.0,30.16,NW,315,3.0,4.0,92,0.00,,,0.02,TxWx,2013-05-19 23:34:00,
2013-05-19 19:39:00,62.0,60.0,30.16,NNW,337,3.0,6.0,92,0.00,,,0.02,TxWx,2013-05-19 23:39:00,
2013-05-19 19:44:00,62.0,60.0,30.16,North,0,5.0,5.0,92,0.00,,,0.02,TxWx,2013-05-19 23:44:00,
2013-05-19 19:49:00,62.0,60.0,30.15,NW,315,3.0,4.0,92,0.00,,,0.02,TxWx,2013-05-19 23:49:00,
2013-05-19 19:55:00,62.0,60.0,30.16,NW,315,5.0,6.0,92,0.00,,,0.02,TxWx,2013-05-19 23:55:00,
2013-05-19 20:00:00,62.0,60.0,30.16,NW,315,3.0,3.0,92,0.00,,,0.02,TxWx,2013-05-20 00:00:00,
2013-05-19 20:05:00,62.0,60.0,30.16,NW,315,5.0,6.0,92,0.00,,,0.02,TxWx,2013-05-20 00:05:00,
2013-05-19 20:10:00,62.0,60.0,30.15,NNW,337,5.0,7.0,92,0.00,,,0.02,TxWx,2013-05-20 00:10:00,
2013-05-19 20:15:00,62.0,60.0,30.15,West,270,5.0,5.0,92,0.00,,,0.02,TxWx,2013-05-20 00:15:00,
2013-05-19 20:20:00,62.0,60.0,30.15,NNW,337,3.0,5.0,92,0.00,,,0.02,TxWx,2013-05-20 00:20:00,
2013-05-19 20:26:00,62.0,60.0,30.15,WNW,292,4.0,5.0,92,0.00,,,0.02,TxWx,2013-05-20 00:26:00,
2013-05-19 20:31:00,62.0,59.0,30.16,NW,315,3.0,3.0,92,0.00,,,0.02,TxWx,2013-05-20 00:31:00,
2013-05-19 20:36:00,62.0,59.0,30.16,NNW,337,4.0,4.0,92,0.00,,,0.02,TxWx,2013-05-20 00:36:00,
2013-05-19 20:41:00,62.0,59.0,30.15,NNW,337,3.0,3.0,92,0.00,,,0.02,TxWx,2013-05-20 00:41:00,
2013-05-19 20:47:00,62.0,59.0,30.16,NNW,337,3.0,3.0,92,0.00,,,0.02,TxWx,2013-05-20 00:47:00,
2013-05-19 20:52:00,62.0,59.0,30.15,NW,315,5.0,5.0,91,0.00,,,0.02,TxWx,2013-05-20 00:52:00,
2013-05-19 20:57:00,62.0,59.0,30.15,NW,315,3.0,4.0,91,0.00,,,0.02,TxWx,2013-05-20 00:57:00,
2013-05-19 21:02:00,62.0,59.0,30.15,NW,315,3.0,3.0,91,0.00,,,0.02,TxWx,2013-05-20 01:02:00,
2013-05-19 21:07:00,62.0,59.0,30.15,NNW,337,2.0,3.0,91,0.00,,,0.02,TxWx,2013-05-20 01:07:00,
2013-05-19 21:13:00,62.0,59.0,30.15,NNW,337,3.0,3.0,91,0.00,,,0.02,TxWx,2013-05-20 01:13:00,
2013-05-19 21:18:00,62.0,59.0,30.15,NW,315,2.0,2.0,91,0.00,,,0.02,TxWx,2013-05-20 01:18:00,
2013-05-19 21:23:00,62.0,59.0,30.15,NNE,22,3.0,3.0,91,0.00,,,0.02,TxWx,2013-05-20 01:23:00,
2013-05-19 21:28:00,62.0,59.0,30.15,WNW,292,3.0,3.0,91,0.00,,,0.02,TxWx,2013-05-20 01:28:00,
2013-05-19 21:33:00,62.0,59.0,30.15,WNW,292,3.0,3.0,90,0.00,,,0.02,TxWx,2013-05-20 01:33:00,
2013-05-19 21:39:00,62.0,59.0,30.15,WNW,292,3.0,4.0,90,0.00,,,0.02,TxWx,2013-05-20 01:39:00,
2013-05-19 21:44:00,62.0,59.0,30.15,NW,315,5.0,5.0,90,0.00,,,0.02,TxWx,2013-05-20 01:44:00,
2013-05-19 21:49:00,62.0,59.0,30.15,WNW,292,6.0,6.0,90,0.00,,,0.02,TxWx,2013-05-20 01:49:00,
2013-05-19 21:54:00,62.0,59.0,30.14,NW,315,3.0,4.0,90,0.00,,,0.02,TxWx,2013-05-20 01:54:00,
2013-05-19 21:59:00,62.0,59.0,30.14,WNW,292,6.0,6.0,90,0.00,,,0.02,TxWx,2013-05-20 01:59:00,
2013-05-19 22:05:00,62.0,59.0,30.14,NW,315,5.0,5.0,90,0.00,,,0.02,TxWx,2013-05-20 02:05:00,
2013-05-19 22:10:00,61.0,58.0,30.14,North,0,5.0,6.0,90,0.00,,,0.02,TxWx,2013-05-20 02:10:00,
2013-05-19 22:16:00,61.0,58.0,30.14,North,0,1.0,3.0,90,0.00,,,0.02,TxWx,2013-05-20 02:16:00,
2013-05-19 22:21:00,61.0,58.0,30.14,NW,315,5.0,5.0,90,0.00,,,0.02,TxWx,2013-05-20 02:21:00,
2013-05-19 22:26:00,61.0,58.0,30.14,WNW,292,3.0,5.0,90,0.00,,,0.02,TxWx,2013-05-20 02:26:00,
2013-05-19 22:32:00,61.0,58.0,30.14,NNW,337,3.0,3.0,90,0.00,,,0.02,TxWx,2013-05-20 02:32:00,
2013-05-19 22:37:00,61.0,59.0,30.14,NW,315,3.0,5.0,90,0.00,,,0.02,TxWx,2013-05-20 02:37:00,
2013-05-19 22:42:00,61.0,59.0,30.14,NW,315,3.0,3.0,90,0.00,,,0.02,TxWx,2013-05-20 02:42:00,
2013-05-19 22:48:00,61.0,59.0,30.14,NNW,337,3.0,3.0,90,0.00,,,0.02,TxWx,2013-05-20 02:48:00,
2013-05-19 22:53:00,61.0,59.0,30.13,NW,315,4.0,5.0,90,0.00,,,0.02,TxWx,2013-05-20 02:53:00,
2013-05-19 22:58:00,61.0,59.0,30.13,NNW,337,3.0,3.0,90,0.00,,,0.02,TxWx,2013-05-20 02:58:00,
2013-05-19 23:04:00,61.0,59.0,30.13,WNW,292,3.0,3.0,90,0.00,,,0.02,TxWx,2013-05-20 03:04:00,
2013-05-19 23:09:00,61.0,58.0,30.12,NNW,337,2.0,3.0,90,0.00,,,0.02,TxWx,2013-05-20 03:09:00,
2013-05-19 23:14:00,61.0,58.0,30.12,NNE,22,3.0,3.0,90,0.00,,,0.02,TxWx,2013-05-20 03:14:00,
2013-05-19 23:19:00,61.0,58.0,30.12,NW,315,4.0,5.0,90,0.00,,,0.02,TxWx,2013-05-20 03:19:00,
2013-05-19 23:25:00,61.0,58.0,30.11,NW,315,3.0,6.0,90,0.00,,,0.02,TxWx,2013-05-20 03:25:00,
2013-05-19 23:30:00,61.0,58.0,30.11,NNW,337,5.0,5.0,90,0.00,,,0.02,TxWx,2013-05-20 03:30:00,
2013-05-19 23:35:00,61.0,58.0,30.11,WNW,292,3.0,3.0,90,0.00,,,0.02,TxWx,2013-05-20 03:35:00,
2013-05-19 23:41:00,61.0,58.0,30.10,NW,315,2.0,3.0,90,0.00,,,0.02,TxWx,2013-05-20 03:41:00,
2013-05-19 23:46:00,61.0,58.0,30.11,NW,315,3.0,3.0,90,0.00,,,0.02,TxWx,2013-05-20 03:46:00,
2013-05-19 23:51:00,61.0,58.0,30.10,NW,315,2.0,3.0,90,0.00,,,0.02,TxWx,2013-05-20 03:51:00,
2013-05-19 23:56:00,61.0,58.0,30.10,WSW,247,5.0,7.0,90,0.00,,,0.02,TxWx,2013-05-20 03:56:00,